Terminal Aerodrome Forecast
Issued by NWS Blacksburg, VA

Current Version | Previous Version | Text Only | Print | Product List | Glossary Off
Versions: 1 2 3 4 5 6 7 8 9 10 11 12 13 14 15 16 17 18 19 20 21 22

000
FTUS41 KRNK 231122
TAFBLF
TAF
KBLF 231122Z 2312/2412 25003KT P6SM SKC
     FM231400 VRB04KT P6SM SCT045 SCT250
     FM231600 13006KT P6SM SCT050 SCT250
     FM240000 19004KT P6SM SKC
     FM240600 VRB03KT P6SM SKC=

USA.gov is the U.S. government's official web portal to all federal, state and local government web resources and services.